sensor_id;sensor_type;location;lat;lon;timestamp;temperature;humidity
11083;DHT22;5595;50.186;8.468;2023-11-21T00:01:26;9.10;99.90
11083;DHT22;5595;50.186;8.468;2023-11-21T00:03:53;9.10;99.90
11083;DHT22;5595;50.186;8.468;2023-11-21T00:06:20;9.10;99.90
11083;DHT22;5595;50.186;8.468;2023-11-21T00:08:48;9.10;99.90
11083;DHT22;5595;50.186;8.468;2023-11-21T00:11:14;9.10;99.90
11083;DHT22;5595;50.186;8.468;2023-11-21T00:13:41;9.10;99.90
11083;DHT22;5595;50.186;8.468;2023-11-21T00:16:09;9.10;99.90
11083;DHT22;5595;50.186;8.468;2023-11-21T00:18:36;9.20;99.90
11083;DHT22;5595;50.186;8.468;2023-11-21T00:21:03;9.10;99.90
11083;DHT22;5595;50.186;8.468;2023-11-21T00:23:29;9.20;99.90
11083;DHT22;5595;50.186;8.468;2023-11-21T00:25:57;9.20;99.90
11083;DHT22;5595;50.186;8.468;2023-11-21T00:28:25;9.30;99.90
11083;DHT22;5595;50.186;8.468;2023-11-21T00:30:52;9.30;99.90
11083;DHT22;5595;50.186;8.468;2023-11-21T00:33:19;9.20;99.90
11083;DHT22;5595;50.186;8.468;2023-11-21T00:35:46;9.20;99.90
11083;DHT22;5595;50.186;8.468;2023-11-21T00:38:13;9.20;99.90
11083;DHT22;5595;50.186;8.468;2023-11-21T00:40:39;9.20;99.90
11083;DHT22;5595;50.186;8.468;2023-11-21T00:43:08;9.20;99.90
11083;DHT22;5595;50.186;8.468;2023-11-21T00:45:34;9.20;99.90
11083;DHT22;5595;50.186;8.468;2023-11-21T00:48:02;9.10;99.90
11083;DHT22;5595;50.186;8.468;2023-11-21T00:50:30;9.10;99.90
11083;DHT22;5595;50.186;8.468;2023-11-21T00:52:57;9.10;99.90
11083;DHT22;5595;50.186;8.468;2023-11-21T00:55:24;9.10;99.90
11083;DHT22;5595;50.186;8.468;2023-11-21T00:57:51;9.10;99.90
11083;DHT22;5595;50.186;8.468;2023-11-21T01:00:20;9.10;99.90
11083;DHT22;5595;50.186;8.468;2023-11-21T01:02:46;9.20;99.90
11083;DHT22;5595;50.186;8.468;2023-11-21T01:05:35;9.20;99.90
11083;DHT22;5595;50.186;8.468;2023-11-21T01:08:19;9.20;99.90
11083;DHT22;5595;50.186;8.468;2023-11-21T01:11:01;9.10;99.90
11083;DHT22;5595;50.186;8.468;2023-11-21T01:13:59;9.00;99.90
11083;DHT22;5595;50.186;8.468;2023-11-21T01:16:34;9.10;99.90
11083;DHT22;5595;50.186;8.468;2023-11-21T01:19:01;9.00;99.90
11083;DHT22;5595;50.186;8.468;2023-11-21T01:21:30;9.10;99.90
11083;DHT22;5595;50.186;8.468;2023-11-21T01:23:57;9.10;99.90
11083;DHT22;5595;50.186;8.468;2023-11-21T05:36:33;8.40;99.90
11083;DHT22;5595;50.186;8.468;2023-11-21T05:39:03;8.30;99.90
11083;DHT22;5595;50.186;8.468;2023-11-21T05:41:30;8.40;99.90
11083;DHT22;5595;50.186;8.468;2023-11-21T05:43:56;8.30;99.90
11083;DHT22;5595;50.186;8.468;2023-11-21T05:46:23;8.30;99.90
11083;DHT22;5595;50.186;8.468;2023-11-21T05:48:50;8.20;99.90
11083;DHT22;5595;50.186;8.468;2023-11-21T05:51:19;8.20;99.90
11083;DHT22;5595;50.186;8.468;2023-11-21T05:53:47;8.20;99.90
11083;DHT22;5595;50.186;8.468;2023-11-21T05:56:14;8.20;99.90
11083;DHT22;5595;50.186;8.468;2023-11-21T05:58:40;8.20;99.90
11083;DHT22;5595;50.186;8.468;2023-11-21T06:01:07;8.20;99.90
11083;DHT22;5595;50.186;8.468;2023-11-21T06:03:34;8.20;99.90
11083;DHT22;5595;50.186;8.468;2023-11-21T06:06:01;8.20;99.90
11083;DHT22;5595;50.186;8.468;2023-11-21T06:08:29;8.20;99.90
11083;DHT22;5595;50.186;8.468;2023-11-21T06:10:58;8.20;99.90
11083;DHT22;5595;50.186;8.468;2023-11-21T06:13:24;8.20;99.90
11083;DHT22;5595;50.186;8.468;2023-11-21T06:15:51;8.20;99.90
11083;DHT22;5595;50.186;8.468;2023-11-21T06:18:18;8.20;99.90
11083;DHT22;5595;50.186;8.468;2023-11-21T06:20:45;8.20;99.90
11083;DHT22;5595;50.186;8.468;2023-11-21T06:23:12;8.20;99.90
11083;DHT22;5595;50.186;8.468;2023-11-21T06:25:39;8.20;99.90
11083;DHT22;5595;50.186;8.468;2023-11-21T06:28:09;8.20;99.90
11083;DHT22;5595;50.186;8.468;2023-11-21T06:30:35;8.10;99.90
11083;DHT22;5595;50.186;8.468;2023-11-21T06:33:02;8.20;99.90
11083;DHT22;5595;50.186;8.468;2023-11-21T06:35:29;8.10;99.90
11083;DHT22;5595;50.186;8.468;2023-11-21T06:37:59;8.10;99.90
11083;DHT22;5595;50.186;8.468;2023-11-21T06:40:26;8.10;99.90
11083;DHT22;5595;50.186;8.468;2023-11-21T06:42:53;8.00;99.90
11083;DHT22;5595;50.186;8.468;2023-11-21T06:45:21;8.10;99.90
11083;DHT22;5595;50.186;8.468;2023-11-21T06:47:48;8.10;99.90
11083;DHT22;5595;50.186;8.468;2023-11-21T06:50:15;8.10;99.90
11083;DHT22;5595;50.186;8.468;2023-11-21T06:52:42;8.10;99.90
11083;DHT22;5595;50.186;8.468;2023-11-21T06:55:09;8.10;99.90
11083;DHT22;5595;50.186;8.468;2023-11-21T06:57:36;8.10;99.90
11083;DHT22;5595;50.186;8.468;2023-11-21T07:00:04;8.10;99.90
11083;DHT22;5595;50.186;8.468;2023-11-21T07:02:35;8.10;99.90
11083;DHT22;5595;50.186;8.468;2023-11-21T07:05:03;8.10;99.90
11083;DHT22;5595;50.186;8.468;2023-11-21T07:07:29;8.10;99.90
11083;DHT22;5595;50.186;8.468;2023-11-21T07:09:57;8.10;99.90
11083;DHT22;5595;50.186;8.468;2023-11-21T07:12:28;8.00;99.90
11083;DHT22;5595;50.186;8.468;2023-11-21T07:14:55;8.10;99.90
11083;DHT22;5595;50.186;8.468;2023-11-21T07:17:22;8.10;99.90
11083;DHT22;5595;50.186;8.468;2023-11-21T07:19:50;8.10;99.90
11083;DHT22;5595;50.186;8.468;2023-11-21T07:22:17;8.20;99.90
11083;DHT22;5595;50.186;8.468;2023-11-21T07:24:48;8.10;99.90
11083;DHT22;5595;50.186;8.468;2023-11-21T07:27:15;8.20;99.90
11083;DHT22;5595;50.186;8.468;2023-11-21T07:29:41;8.20;99.90
11083;DHT22;5595;50.186;8.468;2023-11-21T07:32:08;8.20;99.90
11083;DHT22;5595;50.186;8.468;2023-11-21T07:34:36;8.30;99.90
11083;DHT22;5595;50.186;8.468;2023-11-21T07:37:04;8.40;99.90
11083;DHT22;5595;50.186;8.468;2023-11-21T07:39:31;8.40;99.90
11083;DHT22;5595;50.186;8.468;2023-11-21T07:41:58;8.50;99.90
11083;DHT22;5595;50.186;8.468;2023-11-21T07:44:25;8.50;99.90
11083;DHT22;5595;50.186;8.468;2023-11-21T07:46:51;8.50;99.90
11083;DHT22;5595;50.186;8.468;2023-11-21T07:49:22;8.60;99.90
11083;DHT22;5595;50.186;8.468;2023-11-21T07:51:49;8.60;99.90
11083;DHT22;5595;50.186;8.468;2023-11-21T07:54:17;8.60;99.90
11083;DHT22;5595;50.186;8.468;2023-11-21T07:56:45;8.60;99.90
11083;DHT22;5595;50.186;8.468;2023-11-21T07:59:11;8.60;99.90
11083;DHT22;5595;50.186;8.468;2023-11-21T08:01:39;8.70;99.90
11083;DHT22;5595;50.186;8.468;2023-11-21T08:04:08;8.70;99.90
11083;DHT22;5595;50.186;8.468;2023-11-21T08:06:35;8.70;99.90
11083;DHT22;5595;50.186;8.468;2023-11-21T08:09:02;8.60;99.90
11083;DHT22;5595;50.186;8.468;2023-11-21T08:11:30;8.60;99.90
11083;DHT22;5595;50.186;8.468;2023-11-21T08:13:58;8.60;99.90
11083;DHT22;5595;50.186;8.468;2023-11-21T08:16:25;8.60;99.90
11083;DHT22;5595;50.186;8.468;2023-11-21T08:18:52;8.60;99.90
11083;DHT22;5595;50.186;8.468;2023-11-21T08:21:20;8.60;99.90
11083;DHT22;5595;50.186;8.468;2023-11-21T08:23:46;8.70;99.90
11083;DHT22;5595;50.186;8.468;2023-11-21T08:26:19;8.70;99.90
11083;DHT22;5595;50.186;8.468;2023-11-21T08:28:47;8.70;99.90
11083;DHT22;5595;50.186;8.468;2023-11-21T08:31:14;8.80;99.90
11083;DHT22;5595;50.186;8.468;2023-11-21T08:33:41;8.80;99.90
11083;DHT22;5595;50.186;8.468;2023-11-21T08:36:08;8.90;99.90
11083;DHT22;5595;50.186;8.468;2023-11-21T08:38:36;8.80;99.90
11083;DHT22;5595;50.186;8.468;2023-11-21T08:41:05;8.90;99.90
11083;DHT22;5595;50.186;8.468;2023-11-21T08:43:34;9.00;99.90
11083;DHT22;5595;50.186;8.468;2023-11-21T08:46:02;9.00;99.90
11083;DHT22;5595;50.186;8.468;2023-11-21T08:48:29;9.00;99.90
11083;DHT22;5595;50.186;8.468;2023-11-21T08:50:56;9.00;99.90
11083;DHT22;5595;50.186;8.468;2023-11-21T08:53:23;9.10;99.90
11083;DHT22;5595;50.186;8.468;2023-11-21T08:55:51;9.00;99.90
11083;DHT22;5595;50.186;8.468;2023-11-21T08:58:19;9.00;99.90
11083;DHT22;5595;50.186;8.468;2023-11-21T09:00:47;8.90;99.90
11083;DHT22;5595;50.186;8.468;2023-11-21T09:03:15;9.00;99.90
11083;DHT22;5595;50.186;8.468;2023-11-21T09:05:42;9.00;99.90
11083;DHT22;5595;50.186;8.468;2023-11-21T09:08:10;9.00;99.90
11083;DHT22;5595;50.186;8.468;2023-11-21T09:10:37;9.10;99.90
11083;DHT22;5595;50.186;8.468;2023-11-21T09:13:05;9.20;99.90
11083;DHT22;5595;50.186;8.468;2023-11-21T09:15:35;9.20;99.90
11083;DHT22;5595;50.186;8.468;2023-11-21T09:18:02;9.20;99.90
11083;DHT22;5595;50.186;8.468;2023-11-21T09:20:31;9.20;99.90
11083;DHT22;5595;50.186;8.468;2023-11-21T09:22:58;9.40;99.90
11083;DHT22;5595;50.186;8.468;2023-11-21T09:25:25;9.50;99.90
11083;DHT22;5595;50.186;8.468;2023-11-21T09:27:54;9.40;99.90
11083;DHT22;5595;50.186;8.468;2023-11-21T09:30:21;9.40;99.90
11083;DHT22;5595;50.186;8.468;2023-11-21T09:32:50;9.40;99.90
11083;DHT22;5595;50.186;8.468;2023-11-21T09:35:17;9.50;99.90
11083;DHT22;5595;50.186;8.468;2023-11-21T09:37:45;9.50;99.90
11083;DHT22;5595;50.186;8.468;2023-11-21T09:40:12;9.60;99.90
11083;DHT22;5595;50.186;8.468;2023-11-21T09:42:48;9.70;99.90
11083;DHT22;5595;50.186;8.468;2023-11-21T09:45:21;9.70;99.90
11083;DHT22;5595;50.186;8.468;2023-11-21T09:47:52;9.80;99.90
11083;DHT22;5595;50.186;8.468;2023-11-21T09:50:21;9.90;99.90
11083;DHT22;5595;50.186;8.468;2023-11-21T09:52:55;10.00;99.90
11083;DHT22;5595;50.186;8.468;2023-11-21T09:55:27;10.00;99.90
11083;DHT22;5595;50.186;8.468;2023-11-21T09:57:56;10.00;99.90
11083;DHT22;5595;50.186;8.468;2023-11-21T10:00:23;10.10;99.90
11083;DHT22;5595;50.186;8.468;2023-11-21T10:02:52;10.30;99.90
11083;DHT22;5595;50.186;8.468;2023-11-21T10:05:19;10.40;99.90
11083;DHT22;5595;50.186;8.468;2023-11-21T10:07:50;10.40;99.90
11083;DHT22;5595;50.186;8.468;2023-11-21T10:10:19;10.50;99.90
11083;DHT22;5595;50.186;8.468;2023-11-21T10:12:49;10.50;99.90
11083;DHT22;5595;50.186;8.468;2023-11-21T10:15:21;10.40;99.90
11083;DHT22;5595;50.186;8.468;2023-11-21T10:17:49;10.30;99.90
11083;DHT22;5595;50.186;8.468;2023-11-21T10:20:19;10.30;99.90
11083;DHT22;5595;50.186;8.468;2023-11-21T10:22:53;10.40;99.90
11083;DHT22;5595;50.186;8.468;2023-11-21T10:25:22;10.30;99.90
11083;DHT22;5595;50.186;8.468;2023-11-21T10:27:49;10.40;99.90
11083;DHT22;5595;50.186;8.468;2023-11-21T10:30:17;10.50;99.90
11083;DHT22;5595;50.186;8.468;2023-11-21T10:32:44;10.50;99.90
11083;DHT22;5595;50.186;8.468;2023-11-21T10:35:12;10.50;99.90
11083;DHT22;5595;50.186;8.468;2023-11-21T10:37:39;10.60;99.90
11083;DHT22;5595;50.186;8.468;2023-11-21T10:40:09;10.70;99.90
11083;DHT22;5595;50.186;8.468;2023-11-21T10:42:37;10.80;99.90
11083;DHT22;5595;50.186;8.468;2023-11-21T10:45:05;10.90;99.90
11083;DHT22;5595;50.186;8.468;2023-11-21T10:47:38;10.90;99.90
11083;DHT22;5595;50.186;8.468;2023-11-21T10:50:05;10.90;99.90
11083;DHT22;5595;50.186;8.468;2023-11-21T10:52:36;10.90;99.90
11083;DHT22;5595;50.186;8.468;2023-11-21T10:55:16;10.90;99.90
11083;DHT22;5595;50.186;8.468;2023-11-21T10:57:44;10.90;99.90
11083;DHT22;5595;50.186;8.468;2023-11-21T11:00:13;10.90;99.90
11083;DHT22;5595;50.186;8.468;2023-11-21T11:02:40;10.80;99.90
11083;DHT22;5595;50.186;8.468;2023-11-21T11:05:08;10.80;99.90
11083;DHT22;5595;50.186;8.468;2023-11-21T11:07:38;10.70;99.90
11083;DHT22;5595;50.186;8.468;2023-11-21T11:10:11;10.70;99.90
11083;DHT22;5595;50.186;8.468;2023-11-21T11:12:40;10.70;99.90
11083;DHT22;5595;50.186;8.468;2023-11-21T11:15:08;10.70;99.90
11083;DHT22;5595;50.186;8.468;2023-11-21T11:17:37;10.80;99.90
11083;DHT22;5595;50.186;8.468;2023-11-21T11:20:06;10.80;99.90
11083;DHT22;5595;50.186;8.468;2023-11-21T11:22:40;10.90;99.90
11083;DHT22;5595;50.186;8.468;2023-11-21T11:25:24;11.00;99.90
11083;DHT22;5595;50.186;8.468;2023-11-21T11:27:54;11.10;99.90
11083;DHT22;5595;50.186;8.468;2023-11-21T11:30:38;11.10;99.90
11083;DHT22;5595;50.186;8.468;2023-11-21T11:33:12;11.20;99.90
11083;DHT22;5595;50.186;8.468;2023-11-21T11:35:49;11.20;99.90
11083;DHT22;5595;50.186;8.468;2023-11-21T11:38:21;11.20;99.90
11083;DHT22;5595;50.186;8.468;2023-11-21T11:40:53;11.20;99.90
11083;DHT22;5595;50.186;8.468;2023-11-21T11:43:25;11.10;99.90
11083;DHT22;5595;50.186;8.468;2023-11-21T11:45:55;11.10;99.90
11083;DHT22;5595;50.186;8.468;2023-11-21T11:48:23;11.00;99.90
11083;DHT22;5595;50.186;8.468;2023-11-21T11:51:03;10.90;99.90
11083;DHT22;5595;50.186;8.468;2023-11-21T11:53:35;10.90;99.90
11083;DHT22;5595;50.186;8.468;2023-11-21T11:56:26;10.90;99.90
11083;DHT22;5595;50.186;8.468;2023-11-21T11:58:54;10.90;99.90
11083;DHT22;5595;50.186;8.468;2023-11-21T12:01:22;10.90;99.90
11083;DHT22;5595;50.186;8.468;2023-11-21T12:04:23;10.90;99.90
11083;DHT22;5595;50.186;8.468;2023-11-21T12:06:56;10.90;99.90
11083;DHT22;5595;50.186;8.468;2023-11-21T12:09:25;10.80;99.90
11083;DHT22;5595;50.186;8.468;2023-11-21T12:11:55;10.80;99.90
11083;DHT22;5595;50.186;8.468;2023-11-21T12:14:22;10.80;99.90
11083;DHT22;5595;50.186;8.468;2023-11-21T12:16:49;10.70;99.90
11083;DHT22;5595;50.186;8.468;2023-11-21T12:19:17;10.80;99.90
11083;DHT22;5595;50.186;8.468;2023-11-21T12:21:44;10.80;99.90
11083;DHT22;5595;50.186;8.468;2023-11-21T12:24:11;10.90;99.90
11083;DHT22;5595;50.186;8.468;2023-11-21T12:26:39;10.80;99.90
11083;DHT22;5595;50.186;8.468;2023-11-21T12:29:07;10.90;99.90
11083;DHT22;5595;50.186;8.468;2023-11-21T12:31:34;10.90;99.90
11083;DHT22;5595;50.186;8.468;2023-11-21T12:34:01;10.90;99.90
11083;DHT22;5595;50.186;8.468;2023-11-21T12:36:28;10.90;99.90
11083;DHT22;5595;50.186;8.468;2023-11-21T12:38:55;10.90;99.90
11083;DHT22;5595;50.186;8.468;2023-11-21T12:41:38;10.80;99.90
11083;DHT22;5595;50.186;8.468;2023-11-21T12:44:10;10.90;99.90
11083;DHT22;5595;50.186;8.468;2023-11-21T12:46:41;10.90;99.90
11083;DHT22;5595;50.186;8.468;2023-11-21T12:49:10;10.90;99.90
11083;DHT22;5595;50.186;8.468;2023-11-21T12:51:43;11.00;99.90
11083;DHT22;5595;50.186;8.468;2023-11-21T12:54:10;11.00;99.90
11083;DHT22;5595;50.186;8.468;2023-11-21T12:56:39;11.10;99.90
11083;DHT22;5595;50.186;8.468;2023-11-21T12:59:06;11.20;99.90
11083;DHT22;5595;50.186;8.468;2023-11-21T13:01:36;11.30;99.90
11083;DHT22;5595;50.186;8.468;2023-11-21T13:04:07;11.40;99.90
11083;DHT22;5595;50.186;8.468;2023-11-21T13:06:36;11.40;99.90
11083;DHT22;5595;50.186;8.468;2023-11-21T13:09:06;11.40;99.90
11083;DHT22;5595;50.186;8.468;2023-11-21T13:11:36;11.30;99.90
11083;DHT22;5595;50.186;8.468;2023-11-21T13:14:07;11.30;99.90
11083;DHT22;5595;50.186;8.468;2023-11-21T13:16:36;11.30;99.90
11083;DHT22;5595;50.186;8.468;2023-11-21T13:19:04;11.30;99.90
11083;DHT22;5595;50.186;8.468;2023-11-21T13:21:31;11.30;99.90
11083;DHT22;5595;50.186;8.468;2023-11-21T13:23:59;11.30;99.90
11083;DHT22;5595;50.186;8.468;2023-11-21T13:26:25;11.30;99.90
11083;DHT22;5595;50.186;8.468;2023-11-21T13:28:52;11.30;99.90
11083;DHT22;5595;50.186;8.468;2023-11-21T13:31:20;11.30;99.90
11083;DHT22;5595;50.186;8.468;2023-11-21T13:33:52;11.30;99.90
11083;DHT22;5595;50.186;8.468;2023-11-21T13:36:22;11.00;99.90
11083;DHT22;5595;50.186;8.468;2023-11-21T13:38:49;11.00;99.90
11083;DHT22;5595;50.186;8.468;2023-11-21T13:41:18;10.90;99.90
11083;DHT22;5595;50.186;8.468;2023-11-21T13:43:45;10.90;99.90
11083;DHT22;5595;50.186;8.468;2023-11-21T13:46:18;10.90;99.90
11083;DHT22;5595;50.186;8.468;2023-11-21T13:48:48;10.90;99.90
11083;DHT22;5595;50.186;8.468;2023-11-21T13:51:21;10.80;99.90
11083;DHT22;5595;50.186;8.468;2023-11-21T13:53:56;10.60;99.90
11083;DHT22;5595;50.186;8.468;2023-11-21T13:56:24;10.50;99.90
11083;DHT22;5595;50.186;8.468;2023-11-21T13:58:53;10.50;99.90
11083;DHT22;5595;50.186;8.468;2023-11-21T14:01:23;10.40;99.90
11083;DHT22;5595;50.186;8.468;2023-11-21T14:04:09;10.30;99.90
11083;DHT22;5595;50.186;8.468;2023-11-21T14:06:45;10.20;99.90
11083;DHT22;5595;50.186;8.468;2023-11-21T14:09:14;10.40;99.90
11083;DHT22;5595;50.186;8.468;2023-11-21T14:11:49;10.20;99.90
11083;DHT22;5595;50.186;8.468;2023-11-21T14:14:17;10.20;99.90
11083;DHT22;5595;50.186;8.468;2023-11-21T14:16:44;10.10;99.90
11083;DHT22;5595;50.186;8.468;2023-11-21T14:19:12;10.10;99.90
11083;DHT22;5595;50.186;8.468;2023-11-21T14:21:42;10.00;99.90
11083;DHT22;5595;50.186;8.468;2023-11-21T14:24:09;10.00;99.90
11083;DHT22;5595;50.186;8.468;2023-11-21T14:26:39;10.00;99.90
11083;DHT22;5595;50.186;8.468;2023-11-21T14:29:06;10.10;99.90
11083;DHT22;5595;50.186;8.468;2023-11-21T14:31:34;10.10;99.90
11083;DHT22;5595;50.186;8.468;2023-11-21T14:34:01;10.10;99.90
11083;DHT22;5595;50.186;8.468;2023-11-21T14:36:29;10.00;99.90
11083;DHT22;5595;50.186;8.468;2023-11-21T14:38:56;10.00;99.90
11083;DHT22;5595;50.186;8.468;2023-11-21T14:41:22;10.00;99.90
11083;DHT22;5595;50.186;8.468;2023-11-21T14:43:53;10.00;99.90
11083;DHT22;5595;50.186;8.468;2023-11-21T14:46:20;10.00;99.90
11083;DHT22;5595;50.186;8.468;2023-11-21T14:48:47;10.00;99.90
11083;DHT22;5595;50.186;8.468;2023-11-21T14:51:24;10.00;99.90
11083;DHT22;5595;50.186;8.468;2023-11-21T14:53:57;10.00;99.90
11083;DHT22;5595;50.186;8.468;2023-11-21T14:56:31;10.00;99.90
11083;DHT22;5595;50.186;8.468;2023-11-21T14:59:00;9.90;99.90
11083;DHT22;5595;50.186;8.468;2023-11-21T15:01:34;9.90;99.90
11083;DHT22;5595;50.186;8.468;2023-11-21T15:04:10;9.80;99.90
11083;DHT22;5595;50.186;8.468;2023-11-21T15:06:48;9.80;99.90
11083;DHT22;5595;50.186;8.468;2023-11-21T15:09:15;9.80;99.90
11083;DHT22;5595;50.186;8.468;2023-11-21T15:12:02;9.80;99.90
11083;DHT22;5595;50.186;8.468;2023-11-21T15:14:39;9.80;99.90
11083;DHT22;5595;50.186;8.468;2023-11-21T15:17:06;9.80;99.90
11083;DHT22;5595;50.186;8.468;2023-11-21T15:19:33;9.80;99.90
11083;DHT22;5595;50.186;8.468;2023-11-21T15:22:01;9.70;99.90
11083;DHT22;5595;50.186;8.468;2023-11-21T15:24:29;9.60;99.90
11083;DHT22;5595;50.186;8.468;2023-11-21T15:26:56;9.60;99.90
11083;DHT22;5595;50.186;8.468;2023-11-21T15:29:23;9.50;99.90
11083;DHT22;5595;50.186;8.468;2023-11-21T15:31:51;9.50;99.90
11083;DHT22;5595;50.186;8.468;2023-11-21T15:34:22;9.50;99.90
11083;DHT22;5595;50.186;8.468;2023-11-21T15:36:49;9.50;99.90
11083;DHT22;5595;50.186;8.468;2023-11-21T15:39:18;9.40;99.90
11083;DHT22;5595;50.186;8.468;2023-11-21T15:41:50;9.40;99.90
11083;DHT22;5595;50.186;8.468;2023-11-21T15:44:17;9.40;99.90
11083;DHT22;5595;50.186;8.468;2023-11-21T15:46:44;9.30;99.90
11083;DHT22;5595;50.186;8.468;2023-11-21T15:49:11;9.30;99.90
11083;DHT22;5595;50.186;8.468;2023-11-21T15:51:43;9.20;99.90
11083;DHT22;5595;50.186;8.468;2023-11-21T15:54:12;9.20;99.90
11083;DHT22;5595;50.186;8.468;2023-11-21T15:56:39;9.20;99.90
11083;DHT22;5595;50.186;8.468;2023-11-21T15:59:07;9.20;99.90
11083;DHT22;5595;50.186;8.468;2023-11-21T16:01:35;9.30;99.90
11083;DHT22;5595;50.186;8.468;2023-11-21T16:04:07;9.30;99.90
11083;DHT22;5595;50.186;8.468;2023-11-21T16:06:34;9.30;99.90
11083;DHT22;5595;50.186;8.468;2023-11-21T16:09:08;9.30;99.90
11083;DHT22;5595;50.186;8.468;2023-11-21T16:11:43;9.40;99.90
11083;DHT22;5595;50.186;8.468;2023-11-21T16:14:11;9.30;99.90
11083;DHT22;5595;50.186;8.468;2023-11-21T16:16:38;9.40;99.90
11083;DHT22;5595;50.186;8.468;2023-11-21T16:19:06;9.40;99.90
11083;DHT22;5595;50.186;8.468;2023-11-21T16:21:32;9.40;99.90
11083;DHT22;5595;50.186;8.468;2023-11-21T16:24:00;9.40;99.90
11083;DHT22;5595;50.186;8.468;2023-11-21T16:26:28;9.50;99.90
11083;DHT22;5595;50.186;8.468;2023-11-21T16:28:53;9.50;99.90
11083;DHT22;5595;50.186;8.468;2023-11-21T16:31:25;9.50;99.90
11083;DHT22;5595;50.186;8.468;2023-11-21T16:33:52;9.40;99.90
11083;DHT22;5595;50.186;8.468;2023-11-21T16:36:18;9.40;99.90
11083;DHT22;5595;50.186;8.468;2023-11-21T16:38:45;9.40;99.90
11083;DHT22;5595;50.186;8.468;2023-11-21T16:41:12;9.50;99.90
11083;DHT22;5595;50.186;8.468;2023-11-21T16:43:43;9.40;99.90
11083;DHT22;5595;50.186;8.468;2023-11-21T16:46:11;9.40;99.90
11083;DHT22;5595;50.186;8.468;2023-11-21T16:48:39;9.40;99.90
11083;DHT22;5595;50.186;8.468;2023-11-21T16:51:06;9.40;99.90
11083;DHT22;5595;50.186;8.468;2023-11-21T16:53:35;9.40;99.90
11083;DHT22;5595;50.186;8.468;2023-11-21T16:56:05;9.40;99.90
11083;DHT22;5595;50.186;8.468;2023-11-21T16:58:32;9.40;99.90
11083;DHT22;5595;50.186;8.468;2023-11-21T17:01:02;9.30;99.90
11083;DHT22;5595;50.186;8.468;2023-11-21T17:03:34;9.30;99.90
11083;DHT22;5595;50.186;8.468;2023-11-21T17:06:03;9.30;99.90
11083;DHT22;5595;50.186;8.468;2023-11-21T17:08:32;9.30;99.90
11083;DHT22;5595;50.186;8.468;2023-11-21T17:10:58;9.20;99.90
11083;DHT22;5595;50.186;8.468;2023-11-21T17:13:25;9.20;99.90
11083;DHT22;5595;50.186;8.468;2023-11-21T17:15:53;9.30;99.90
11083;DHT22;5595;50.186;8.468;2023-11-21T17:18:20;9.20;99.90
11083;DHT22;5595;50.186;8.468;2023-11-21T17:20:47;9.20;99.90
11083;DHT22;5595;50.186;8.468;2023-11-21T17:23:15;9.10;99.90
11083;DHT22;5595;50.186;8.468;2023-11-21T17:25:42;9.00;99.90
11083;DHT22;5595;50.186;8.468;2023-11-21T17:28:09;9.00;99.90
11083;DHT22;5595;50.186;8.468;2023-11-21T17:30:37;9.00;99.90
11083;DHT22;5595;50.186;8.468;2023-11-21T17:33:04;9.00;99.90
11083;DHT22;5595;50.186;8.468;2023-11-21T17:35:32;9.00;99.90
11083;DHT22;5595;50.186;8.468;2023-11-21T17:37:58;9.00;99.90
11083;DHT22;5595;50.186;8.468;2023-11-21T17:40:28;9.00;99.90
11083;DHT22;5595;50.186;8.468;2023-11-21T17:42:55;9.00;99.90
11083;DHT22;5595;50.186;8.468;2023-11-21T17:45:21;9.00;99.90
11083;DHT22;5595;50.186;8.468;2023-11-21T17:47:50;9.00;99.90
11083;DHT22;5595;50.186;8.468;2023-11-21T17:50:17;8.90;99.90
11083;DHT22;5595;50.186;8.468;2023-11-21T17:52:44;9.00;99.90
11083;DHT22;5595;50.186;8.468;2023-11-21T17:55:12;9.00;99.90
11083;DHT22;5595;50.186;8.468;2023-11-21T17:57:41;9.00;99.90
11083;DHT22;5595;50.186;8.468;2023-11-21T18:00:09;9.00;99.90
11083;DHT22;5595;50.186;8.468;2023-11-21T18:02:39;9.00;99.90
11083;DHT22;5595;50.186;8.468;2023-11-21T18:05:08;8.80;99.90
11083;DHT22;5595;50.186;8.468;2023-11-21T18:07:38;8.90;99.90
11083;DHT22;5595;50.186;8.468;2023-11-21T18:10:06;9.00;99.90
11083;DHT22;5595;50.186;8.468;2023-11-21T18:12:33;9.00;99.90
11083;DHT22;5595;50.186;8.468;2023-11-21T18:15:01;9.00;99.90
11083;DHT22;5595;50.186;8.468;2023-11-21T18:17:28;9.00;99.90
11083;DHT22;5595;50.186;8.468;2023-11-21T18:19:55;9.00;99.90
11083;DHT22;5595;50.186;8.468;2023-11-21T18:22:22;9.00;99.90
11083;DHT22;5595;50.186;8.468;2023-11-21T18:24:50;8.90;99.90
11083;DHT22;5595;50.186;8.468;2023-11-21T18:27:18;9.00;99.90
11083;DHT22;5595;50.186;8.468;2023-11-21T18:29:53;9.00;99.90
11083;DHT22;5595;50.186;8.468;2023-11-21T18:32:21;9.00;99.90
11083;DHT22;5595;50.186;8.468;2023-11-21T18:34:48;9.00;99.90
11083;DHT22;5595;50.186;8.468;2023-11-21T18:37:15;9.10;99.90
11083;DHT22;5595;50.186;8.468;2023-11-21T18:39:44;9.00;99.90
11083;DHT22;5595;50.186;8.468;2023-11-21T18:42:11;9.00;99.90
11083;DHT22;5595;50.186;8.468;2023-11-21T18:44:41;9.00;99.90
11083;DHT22;5595;50.186;8.468;2023-11-21T18:47:10;8.90;99.90
11083;DHT22;5595;50.186;8.468;2023-11-21T18:49:39;8.90;99.90
11083;DHT22;5595;50.186;8.468;2023-11-21T18:52:06;8.90;99.90
11083;DHT22;5595;50.186;8.468;2023-11-21T18:54:34;8.80;99.90
11083;DHT22;5595;50.186;8.468;2023-11-21T18:57:01;8.80;99.90
11083;DHT22;5595;50.186;8.468;2023-11-21T18:59:28;8.50;99.90
11083;DHT22;5595;50.186;8.468;2023-11-21T19:01:54;8.40;99.90
11083;DHT22;5595;50.186;8.468;2023-11-21T19:04:21;8.30;99.90
11083;DHT22;5595;50.186;8.468;2023-11-21T19:06:51;8.10;99.90
11083;DHT22;5595;50.186;8.468;2023-11-21T19:09:19;8.10;99.90
11083;DHT22;5595;50.186;8.468;2023-11-21T19:11:47;7.90;99.90
11083;DHT22;5595;50.186;8.468;2023-11-21T19:14:14;7.80;99.90
11083;DHT22;5595;50.186;8.468;2023-11-21T19:16:41;7.70;99.90
11083;DHT22;5595;50.186;8.468;2023-11-21T19:19:07;7.50;99.90
11083;DHT22;5595;50.186;8.468;2023-11-21T19:21:34;7.40;99.90
11083;DHT22;5595;50.186;8.468;2023-11-21T19:24:03;7.30;99.90
11083;DHT22;5595;50.186;8.468;2023-11-21T19:26:30;7.20;99.90
11083;DHT22;5595;50.186;8.468;2023-11-21T19:28:57;7.10;99.90
11083;DHT22;5595;50.186;8.468;2023-11-21T19:31:24;7.10;99.90
11083;DHT22;5595;50.186;8.468;2023-11-21T19:33:51;7.00;99.90
11083;DHT22;5595;50.186;8.468;2023-11-21T19:36:18;6.80;99.90
11083;DHT22;5595;50.186;8.468;2023-11-21T19:38:45;6.70;99.90
11083;DHT22;5595;50.186;8.468;2023-11-21T19:41:14;6.60;99.90
11083;DHT22;5595;50.186;8.468;2023-11-21T19:43:41;6.50;99.90
11083;DHT22;5595;50.186;8.468;2023-11-21T19:46:09;6.50;99.90
11083;DHT22;5595;50.186;8.468;2023-11-21T19:48:36;6.40;99.90
11083;DHT22;5595;50.186;8.468;2023-11-21T19:51:03;6.40;99.90
11083;DHT22;5595;50.186;8.468;2023-11-21T19:53:30;6.40;99.90
11083;DHT22;5595;50.186;8.468;2023-11-21T19:55:57;6.40;99.90
11083;DHT22;5595;50.186;8.468;2023-11-21T19:58:25;6.30;99.90
11083;DHT22;5595;50.186;8.468;2023-11-21T20:00:52;6.30;99.90
11083;DHT22;5595;50.186;8.468;2023-11-21T20:03:19;6.20;99.90
11083;DHT22;5595;50.186;8.468;2023-11-21T20:05:46;6.20;99.90
11083;DHT22;5595;50.186;8.468;2023-11-21T20:08:14;6.20;99.90
11083;DHT22;5595;50.186;8.468;2023-11-21T20:10:42;6.10;99.90
11083;DHT22;5595;50.186;8.468;2023-11-21T20:13:11;6.10;99.90
11083;DHT22;5595;50.186;8.468;2023-11-21T20:15:40;6.00;99.90
11083;DHT22;5595;50.186;8.468;2023-11-21T20:18:08;6.00;99.90